Time;durP1;ratioP1;P1;durP2;ratioP2;P2;SDS_P1;SDS_P2;PMS_P1;PMS_P2;Temp;Humidity;BMP_temperature;BMP_pressure;BME280_temperature;BME280_humidity;BME280_pressure;Samples;Min_cycle;Max_cycle;Signal;HPM_P1;HPM_P2
2023/10/22 00:00:41;;;;;;;;;;;;;;;11.95;96.64;100053.53;4191639;28;20011;-67
2023/10/22 00:02:44;;;;;;;;;;;;;;;11.95;96.74;100067.06;4192972;28;20011;-68
2023/10/22 00:04:45;;;;;;;;;;;;;;;11.94;96.52;100065.38;4193844;28;20361;-67
2023/10/22 00:06:48;;;;;;;;;;;;;;;11.94;96.25;100068.09;4195238;28;19932;-67
2023/10/22 00:08:50;;;;;;;;;;;;;;;11.94;96.70;100067.25;4194458;28;20470;-67
2023/10/22 00:10:52;;;;;;;;;;;;;;;11.94;96.52;100064.56;4193339;28;20014;-67
2023/10/22 00:12:54;;;;;;;;;;;;;;;11.96;96.74;100062.47;4194775;28;20034;-68
2023/10/22 00:14:56;;;;;;;;;;;;;;;11.96;96.66;100066.03;4194335;28;20023;-67
2023/10/22 00:16:59;;;;;;;;;;;;;;;11.96;96.61;100071.44;4194081;28;20015;-67
2023/10/22 00:19:20;;;;;;;;;;;;;;;11.98;96.66;100068.53;4193085;28;20020;-67
2023/10/22 00:21:22;;;;;;;;;;;;;;;11.99;96.69;100072.88;4194579;28;20015;-67
2023/10/22 00:23:24;;;;;;;;;;;;;;;11.98;96.74;100072.06;4194524;28;20035;-67
2023/10/22 00:25:26;;;;;;;;;;;;;;;12.00;96.54;100071.88;4193473;28;20027;-68
2023/10/22 00:27:28;;;;;;;;;;;;;;;11.99;96.66;100070.19;4194340;28;20023;-68
2023/10/22 00:29:29;;;;;;;;;;;;;;;11.99;96.57;100076.44;4195038;28;20378;-68
2023/10/22 00:31:31;;;;;;;;;;;;;;;11.98;96.75;100071.25;4194444;28;19924;-67
2023/10/22 00:33:34;;;;;;;;;;;;;;;11.99;96.69;100070.19;4194488;28;20064;-68
2023/10/22 00:35:36;;;;;;;;;;;;;;;11.98;96.57;100071.25;4194849;28;20023;-67
2023/10/22 00:37:38;;;;;;;;;;;;;;;11.99;96.64;100072.88;4194767;28;19959;-67
2023/10/22 00:39:41;;;;;;;;;;;;;;;11.99;96.79;100068.34;4193542;28;20388;-68
2023/10/22 00:41:43;;;;;;;;;;;;;;;11.98;96.52;100063.94;4194321;28;20022;-67
2023/10/22 00:43:45;;;;;;;;;;;;;;;11.99;96.52;100071.03;4194321;28;20396;-67
2023/10/22 00:45:47;;;;;;;;;;;;;;;11.98;96.53;100072.06;4194613;28;20015;-67
2023/10/22 00:47:49;;;;;;;;;;;;;;;11.98;96.57;100076.66;4194057;28;20028;-68
2023/10/22 00:49:53;;;;;;;;;;;;;;;11.97;96.83;100075.81;4193229;28;20050;-68
2023/10/22 00:51:55;;;;;;;;;;;;;;;11.97;96.54;100067.69;4193773;28;20363;-68
2023/10/22 00:53:57;;;;;;;;;;;;;;;11.97;96.73;100064.16;4194566;28;20352;-67
2023/10/22 00:56:01;;;;;;;;;;;;;;;11.97;96.81;100073.09;4193574;28;20035;-67
2023/10/22 00:58:04;;;;;;;;;;;;;;;11.98;96.63;100074.78;4194555;28;20011;-67
2023/10/22 01:00:07;;;;;;;;;;;;;;;11.98;96.93;100071.25;4169081;28;20028;-67
2023/10/22 01:02:08;;;;;;;;;;;;;;;11.98;96.88;100077.47;4192253;28;20035;-67
2023/10/22 01:04:12;;;;;;;;;;;;;;;12.03;96.52;100095.81;4193522;28;20019;-67
2023/10/22 01:06:15;;;;;;;;;;;;;;;12.06;96.69;100087.28;4193733;28;20041;-67
2023/10/22 01:08:17;;;;;;;;;;;;;;;12.06;96.70;100090.81;4194064;28;20015;-67
2023/10/22 01:10:18;;;;;;;;;;;;;;;12.08;96.64;100082.50;4192803;28;20052;-67
2023/10/22 01:12:20;;;;;;;;;;;;;;;12.09;96.49;100076.06;4193322;28;20015;-68
2023/10/22 01:14:22;;;;;;;;;;;;;;;12.10;96.43;100071.47;4194940;28;20447;-68
2023/10/22 01:16:24;;;;;;;;;;;;;;;12.07;96.79;100068.16;4194029;28;20450;-67
2023/10/22 01:18:27;;;;;;;;;;;;;;;12.06;96.79;100065.63;4191992;28;20357;-67
2023/10/22 01:20:32;;;;;;;;;;;;;;;12.06;96.86;100079.19;4207332;28;20050;-67
2023/10/22 01:22:35;;;;;;;;;;;;;;;12.07;96.84;100083.56;4184633;28;20028;-67
2023/10/22 01:24:38;;;;;;;;;;;;;;;12.01;96.59;100070.84;4194101;28;20023;-67
2023/10/22 01:26:41;;;;;;;;;;;;;;;12.07;96.82;100083.56;4192229;28;20371;-67
2023/10/22 01:28:43;;;;;;;;;;;;;;;12.07;96.79;100087.09;4194353;28;20019;-67
2023/10/22 01:30:44;;;;;;;;;;;;;;;12.04;96.70;100075.84;4192620;28;20034;-67
2023/10/22 01:32:46;;;;;;;;;;;;;;;12.07;96.63;100070.03;4192376;28;20019;-68
2023/10/22 01:34:49;;;;;;;;;;;;;;;12.05;96.63;100062.13;4194378;28;20027;-68
2023/10/22 01:36:52;;;;;;;;;;;;;;;12.06;96.63;100054.81;4193820;28;20019;-68
2023/10/22 01:38:54;;;;;;;;;;;;;;;12.06;96.77;100052.09;4194563;28;19928;-68
2023/10/22 01:40:57;;;;;;;;;;;;;;;12.07;96.55;100053.78;4193743;28;20022;-68
2023/10/22 01:42:59;;;;;;;;;;;;;;;12.07;96.28;100053.78;4193764;28;20018;-67
2023/10/22 01:45:01;;;;;;;;;;;;;;;12.06;96.34;100055.63;4193940;28;20019;-67
2023/10/22 01:47:03;;;;;;;;;;;;;;;12.07;96.22;100042.97;4193629;28;20027;-67
2023/10/22 01:49:05;;;;;;;;;;;;;;;12.08;96.44;100052.72;4194625;28;20003;-68
2023/10/22 01:51:07;;;;;;;;;;;;;;;12.07;96.30;100046.50;4192116;28;20015;-68
2023/10/22 01:53:10;;;;;;;;;;;;;;;12.06;96.28;100050.22;4194522;28;19967;-68
2023/10/22 01:55:12;;;;;;;;;;;;;;;12.06;96.29;100060.22;4193785;28;20030;-68
2023/10/22 01:57:16;;;;;;;;;;;;;;;12.05;96.48;100067.53;4194514;28;20012;-68
2023/10/22 01:59:18;;;;;;;;;;;;;;;12.06;96.41;100062.94;4193093;28;19924;-67
2023/10/22 02:01:22;;;;;;;;;;;;;;;12.06;96.39;100063.75;4208524;28;20092;-67
2023/10/22 02:03:24;;;;;;;;;;;;;;;12.07;96.40;100070.03;4192842;28;20035;-67
2023/10/22 02:05:26;;;;;;;;;;;;;;;12.07;96.32;100067.31;4193511;28;20007;-67
2023/10/22 02:07:30;;;;;;;;;;;;;;;12.07;96.71;100070.03;4194009;28;20024;-67
2023/10/22 02:09:32;;;;;;;;;;;;;;;12.06;96.61;100076.47;4192769;28;20007;-67
2023/10/22 02:11:34;;;;;;;;;;;;;;;12.04;96.78;100071.25;4193402;28;20657;-67
2023/10/22 02:13:37;;;;;;;;;;;;;;;12.04;97.00;100075.84;4193372;28;20030;-67
2023/10/22 02:15:38;;;;;;;;;;;;;;;12.05;97.02;100080.19;4196853;28;20055;-67
2023/10/22 02:17:42;;;;;;;;;;;;;;;12.04;96.92;100090.22;4197160;28;20015;-67
2023/10/22 02:19:44;;;;;;;;;;;;;;;12.04;97.14;100092.09;4195542;28;19950;-67
2023/10/22 02:21:47;;;;;;;;;;;;;;;12.03;97.24;100096.66;4195493;28;20019;-67
2023/10/22 02:23:49;;;;;;;;;;;;;;;12.04;97.20;100100.22;4196820;28;20068;-67
2023/10/22 02:25:50;;;;;;;;;;;;;;;12.05;97.17;100094.59;4196700;28;20015;-67
2023/10/22 02:27:53;;;;;;;;;;;;;;;12.07;97.48;100097.09;4195908;28;20022;-67
2023/10/22 02:29:56;;;;;;;;;;;;;;;12.07;97.40;100105.22;4195269;28;20023;-67
2023/10/22 02:31:58;;;;;;;;;;;;;;;12.07;97.34;100106.03;4194872;28;20463;-67
2023/10/22 02:34:03;;;;;;;;;;;;;;;12.07;97.47;100106.03;4194052;28;20015;-67
2023/10/22 02:36:06;;;;;;;;;;;;;;;12.08;97.32;100117.69;4195456;28;20015;-67
2023/10/22 02:38:08;;;;;;;;;;;;;;;12.08;97.36;100117.69;4196556;28;20007;-67
2023/10/22 02:40:12;;;;;;;;;;;;;;;12.08;97.56;100123.97;4195222;28;20409;-67
2023/10/22 02:42:14;;;;;;;;;;;;;;;12.08;97.37;100121.25;4196011;28;20030;-67
2023/10/22 02:44:16;;;;;;;;;;;;;;;12.08;97.45;100125.81;4194544;28;20095;-67
2023/10/22 02:46:19;;;;;;;;;;;;;;;12.09;97.45;100138.31;4193688;28;20494;-67
2023/10/22 02:48:22;;;;;;;;;;;;;;;12.10;97.27;100145.41;4191190;28;20474;-67
2023/10/22 02:50:25;;;;;;;;;;;;;;;12.11;97.33;100138.13;4194441;28;20020;-67
2023/10/22 02:52:27;;;;;;;;;;;;;;;12.10;97.75;100145.41;4194617;28;20008;-67
2023/10/22 02:54:29;;;;;;;;;;;;;;;12.09;97.70;100138.31;4194984;28;20031;-67
2023/10/22 02:56:31;;;;;;;;;;;;;;;12.08;97.88;100132.09;4195636;28;20027;-67
2023/10/22 02:58:32;;;;;;;;;;;;;;;12.09;97.60;100127.50;4196963;28;20367;-67
2023/10/22 03:00:34;;;;;;;;;;;;;;;12.09;97.80;100138.31;4194915;28;20011;-67
2023/10/22 03:02:38;;;;;;;;;;;;;;;12.10;97.79;100134.59;4193381;28;20362;-67
2023/10/22 03:04:42;;;;;;;;;;;;;;;12.10;98.07;100137.28;4195050;28;20028;-67
2023/10/22 03:06:44;;;;;;;;;;;;;;;12.09;98.14;100138.31;4195858;28;20011;-67
2023/10/22 03:08:46;;;;;;;;;;;;;;;12.07;98.48;100135.00;4194972;28;20007;-67
2023/10/22 03:10:48;;;;;;;;;;;;;;;12.10;98.50;100140.00;4194917;28;20063;-67
2023/10/22 03:12:50;;;;;;;;;;;;;;;12.09;98.49;100146.44;4193641;28;20708;-67
2023/10/22 03:14:52;;;;;;;;;;;;;;;12.11;98.38;100144.34;4194755;28;20020;-67
2023/10/22 03:16:54;;;;;;;;;;;;;;;12.11;98.46;100147.06;4195660;28;20000;-68
2023/10/22 03:18:57;;;;;;;;;;;;;;;12.11;98.25;100144.34;4195753;28;20023;-68
2023/10/22 03:20:59;;;;;;;;;;;;;;;12.13;98.50;100141.44;4194349;28;20019;-68
2023/10/22 03:23:05;;;;;;;;;;;;;;;12.12;98.12;100137.91;4196724;28;20023;-68
2023/10/22 03:25:09;;;;;;;;;;;;;;;12.12;98.46;100137.91;4195452;28;20011;-68
2023/10/22 03:27:11;;;;;;;;;;;;;;;12.13;98.35;100145.00;4195762;28;20044;-68
2023/10/22 03:29:13;;;;;;;;;;;;;;;12.15;98.40;100151.06;4172204;28;20391;-67
2023/10/22 03:31:14;;;;;;;;;;;;;;;12.14;98.29;100135.84;4193688;28;20067;-67
2023/10/22 03:33:16;;;;;;;;;;;;;;;12.15;98.23;100148.34;4196080;28;20023;-67
2023/10/22 03:35:20;;;;;;;;;;;;;;;12.16;98.59;100150.03;4196563;28;20364;-67
2023/10/22 03:37:22;;;;;;;;;;;;;;;12.18;98.66;100149.81;4195962;28;20115;-67
2023/10/22 03:39:24;;;;;;;;;;;;;;;12.17;98.97;100157.09;4195902;28;20361;-67
2023/10/22 03:41:26;;;;;;;;;;;;;;;12.18;99.12;100150.66;4195796;28;19982;-67
2023/10/22 03:43:28;;;;;;;;;;;;;;;12.19;99.03;100154.19;4196919;28;20019;-68
2023/10/22 03:45:31;;;;;;;;;;;;;;;12.20;99.29;100158.56;4195067;28;20027;-67
2023/10/22 03:47:33;;;;;;;;;;;;;;;12.20;99.26;100147.72;4195698;28;20438;-67
2023/10/22 03:49:36;;;;;;;;;;;;;;;12.19;99.06;100146.06;4195942;28;20015;-67
2023/10/22 03:51:39;;;;;;;;;;;;;;;12.20;99.09;100151.28;4195840;28;20012;-68
2023/10/22 03:53:41;;;;;;;;;;;;;;;12.19;99.06;100152.28;4195152;28;20012;-68
2023/10/22 03:55:42;;;;;;;;;;;;;;;12.20;99.27;100153.16;4196561;28;20023;-68
2023/10/22 03:57:44;;;;;;;;;;;;;;;12.21;99.15;100152.94;4196119;28;19936;-67
2023/10/22 03:59:46;;;;;;;;;;;;;;;12.21;99.05;100149.38;4195037;28;20007;-67
2023/10/22 04:01:48;;;;;;;;;;;;;;;12.20;99.71;100156.69;4193618;28;19929;-67
2023/10/22 04:03:50;;;;;;;;;;;;;;;12.21;99.62;100165.63;4195057;28;20885;-67
2023/10/22 04:05:56;;;;;;;;;;;;;;;12.21;100.00;100163.78;4194293;28;20012;-67
2023/10/22 04:08:00;;;;;;;;;;;;;;;12.21;100.00;100165.63;4195594;28;20035;-67
2023/10/22 04:10:03;;;;;;;;;;;;;;;12.19;100.00;100165.84;4194281;28;20450;-67
2023/10/22 04:12:05;;;;;;;;;;;;;;;12.20;100.00;100164.81;4194868;28;20027;-67
2023/10/22 04:14:09;;;;;;;;;;;;;;;12.21;100.00;100157.50;4195623;28;20470;-67
2023/10/22 04:16:16;;;;;;;;;;;;;;;12.21;100.00;100161.06;4185409;28;19967;-67
2023/10/22 04:18:19;;;;;;;;;;;;;;;12.21;100.00;100160.22;4194515;28;20343;-66
2023/10/22 04:20:21;;;;;;;;;;;;;;;12.21;100.00;100161.06;4193472;28;20103;-66
2023/10/22 04:22:23;;;;;;;;;;;;;;;12.21;100.00;100160.22;4194128;28;19947;-66
2023/10/22 04:24:26;;;;;;;;;;;;;;;12.21;100.00;100162.91;4193471;28;20401;-66
2023/10/22 04:26:29;;;;;;;;;;;;;;;12.21;100.00;100161.06;4194548;28;20028;-66
2023/10/22 04:28:31;;;;;;;;;;;;;;;12.21;100.00;100161.06;4194261;28;20015;-66
2023/10/22 04:30:33;;;;;;;;;;;;;;;12.22;100.00;100164.59;4190965;28;20023;-66
2023/10/22 04:32:36;;;;;;;;;;;;;;;12.22;100.00;100167.31;4192401;28;20051;-66
2023/10/22 04:34:38;;;;;;;;;;;;;;;12.22;100.00;100161.91;4194122;28;20170;-66
2023/10/22 04:36:40;;;;;;;;;;;;;;;12.23;100.00;100158.16;4192543;28;20067;-67
2023/10/22 04:38:41;;;;;;;;;;;;;;;12.23;100.00;100163.56;4194620;28;20024;-66
2023/10/22 04:40:44;;;;;;;;;;;;;;;12.23;100.00;100166.28;4192481;28;19979;-66
2023/10/22 04:42:46;;;;;;;;;;;;;;;12.23;100.00;100166.28;4193906;28;19954;-66
2023/10/22 04:44:47;;;;;;;;;;;;;;;12.22;100.00;100160.00;4193225;28;20011;-66
2023/10/22 04:46:50;;;;;;;;;;;;;;;12.23;100.00;100163.56;4193267;28;19993;-66
2023/10/22 04:48:54;;;;;;;;;;;;;;;12.23;100.00;100155.47;4192806;28;20039;-66
2023/10/22 04:50:57;;;;;;;;;;;;;;;12.24;100.00;100157.97;4192851;28;20031;-67
2023/10/22 04:52:59;;;;;;;;;;;;;;;12.24;100.00;100160.66;4193157;28;20609;-66
2023/10/22 04:55:02;;;;;;;;;;;;;;;12.23;100.00;100161.69;4194086;28;20019;-66
2023/10/22 04:57:07;;;;;;;;;;;;;;;12.23;100.00;100160.88;4192718;28;20235;-67
2023/10/22 04:59:09;;;;;;;;;;;;;;;12.23;100.00;100161.69;4193783;28;20018;-66
2023/10/22 05:01:11;;;;;;;;;;;;;;;12.24;100.00;100162.53;4192819;28;20019;-66
2023/10/22 05:03:13;;;;;;;;;;;;;;;12.24;100.00;100165.22;4192641;28;19982;-66
2023/10/22 05:05:15;;;;;;;;;;;;;;;12.24;100.00;100166.09;4193119;28;20024;-66
2023/10/22 05:07:16;;;;;;;;;;;;;;;12.24;100.00;100162.53;4193355;28;20015;-66
2023/10/22 05:09:19;;;;;;;;;;;;;;;12.24;100.00;100165.22;4193879;28;20015;-66
2023/10/22 05:11:21;;;;;;;;;;;;;;;12.24;100.00;100160.66;4192836;28;20450;-66
2023/10/22 05:13:24;;;;;;;;;;;;;;;12.24;100.00;100163.38;4192529;28;20035;-66
2023/10/22 05:15:27;;;;;;;;;;;;;;;12.25;100.00;100159.63;4191383;28;20022;-66
2023/10/22 05:17:29;;;;;;;;;;;;;;;12.24;100.00;100163.38;4193331;28;20038;-65
2023/10/22 05:19:31;;;;;;;;;;;;;;;12.24;100.00;100168.78;4190769;28;20434;-67
2023/10/22 05:21:34;;;;;;;;;;;;;;;12.25;100.00;100166.91;4191557;28;20473;-66
2023/10/22 05:23:35;;;;;;;;;;;;;;;12.25;100.00;100178.56;4192423;28;19935;-66
2023/10/22 05:25:37;;;;;;;;;;;;;;;12.25;100.00;100175.03;4192756;28;20353;-66
2023/10/22 05:27:39;;;;;;;;;;;;;;;12.25;100.00;100178.56;4191118;28;20023;-68
2023/10/22 05:29:41;;;;;;;;;;;;;;;12.26;100.00;100171.28;4190255;28;20019;-67
2023/10/22 05:31:47;;;;;;;;;;;;;;;12.25;100.00;100181.28;4190345;28;20012;-67
2023/10/22 05:33:50;;;;;;;;;;;;;;;12.25;100.00;100183.97;4191085;28;19974;-67
2023/10/22 05:35:52;;;;;;;;;;;;;;;12.27;100.00;100181.06;4190095;28;20027;-67
2023/10/22 05:37:54;;;;;;;;;;;;;;;12.26;100.00;100180.25;4190972;28;21948;-66
2023/10/22 05:39:56;;;;;;;;;;;;;;;12.26;100.00;100182.13;4191555;28;20019;-67
2023/10/22 05:41:58;;;;;;;;;;;;;;;12.26;100.00;100187.53;4191742;28;20031;-67
2023/10/22 05:44:01;;;;;;;;;;;;;;;12.26;100.00;100191.06;4190462;28;19996;-67
2023/10/22 05:46:04;;;;;;;;;;;;;;;12.26;100.00;100204.63;4190956;28;20031;-67
2023/10/22 05:48:06;;;;;;;;;;;;;;;12.26;100.00;100206.50;4191997;28;20025;-67
2023/10/22 05:50:09;;;;;;;;;;;;;;;12.25;100.00;100205.63;4192653;28;20007;-67
2023/10/22 05:52:11;;;;;;;;;;;;;;;12.26;100.00;100203.78;4191930;28;20395;-66
2023/10/22 05:54:12;;;;;;;;;;;;;;;12.25;100.00;100199.41;4196219;28;20031;-66
2023/10/22 05:56:14;;;;;;;;;;;;;;;12.25;100.00;100208.34;4195820;28;20510;-67
2023/10/22 05:58:16;;;;;;;;;;;;;;;12.25;100.00;100204.81;4194542;28;20481;-67
2023/10/22 06:00:18;;;;;;;;;;;;;;;12.23;100.00;100207.72;4193391;28;20051;-66
2023/10/22 06:02:22;;;;;;;;;;;;;;;12.23;100.00;100213.13;4194888;28;20514;-67
2023/10/22 06:04:24;;;;;;;;;;;;;;;12.22;100.00;100214.16;4195289;28;19978;-68
2023/10/22 06:06:25;;;;;;;;;;;;;;;12.21;100.00;100207.09;4193838;28;20014;-67
2023/10/22 06:08:27;;;;;;;;;;;;;;;12.21;100.00;100212.50;4194353;28;20055;-66
2023/10/22 06:10:29;;;;;;;;;;;;;;;12.21;100.00;100209.81;4195264;28;20019;-67
2023/10/22 06:12:32;;;;;;;;;;;;;;;12.21;100.00;100212.50;4194605;28;20015;-67
2023/10/22 06:14:34;;;;;;;;;;;;;;;12.20;100.00;100210.81;4194523;28;20019;-67
2023/10/22 06:16:36;;;;;;;;;;;;;;;12.19;100.00;100211.03;4195956;28;20016;-67
2023/10/22 06:18:40;;;;;;;;;;;;;;;12.19;100.00;100213.72;4196572;28;20023;-67
2023/10/22 06:20:42;;;;;;;;;;;;;;;12.20;100.00;100210.00;4195037;28;20447;-68
2023/10/22 06:22:46;;;;;;;;;;;;;;;12.19;100.00;100211.84;4193572;28;20015;-67
2023/10/22 06:24:48;;;;;;;;;;;;;;;12.20;100.00;100221.66;4194820;28;20394;-67
2023/10/22 06:26:50;;;;;;;;;;;;;;;12.20;100.00;100228.97;4194112;28;20011;-69
2023/10/22 06:28:52;;;;;;;;;;;;;;;12.19;100.00;100227.28;4195985;28;20019;-68
2023/10/22 06:30:54;;;;;;;;;;;;;;;12.20;100.00;100234.38;4194444;28;20716;-68
2023/10/22 06:32:56;;;;;;;;;;;;;;;12.20;100.00;100242.50;4192797;28;20509;-69
2023/10/22 06:35:05;;;;;;;;;;;;;;;12.19;100.00;100235.41;4191949;28;20446;-68
2023/10/22 06:37:07;;;;;;;;;;;;;;;12.18;100.00;100231.88;4193616;28;20007;-69
2023/10/22 06:39:12;;;;;;;;;;;;;;;12.18;100.00;100234.56;4194311;28;20027;-69
2023/10/22 06:41:18;;;;;;;;;;;;;;;12.18;100.00;100233.75;4193257;28;20418;-69
2023/10/22 06:43:20;;;;;;;;;;;;;;;12.19;100.00;100235.41;4196761;28;20027;-70
2023/10/22 06:45:24;;;;;;;;;;;;;;;12.18;100.00;100231.88;4196435;28;20499;-69
2023/10/22 06:47:26;;;;;;;;;;;;;;;12.19;100.00;100235.41;4194869;28;20038;-69
2023/10/22 06:49:28;;;;;;;;;;;;;;;12.17;100.00;100230.19;4194666;28;20031;-69
2023/10/22 06:51:31;;;;;;;;;;;;;;;12.16;100.00;100231.25;4196197;28;20015;-69
2023/10/22 06:53:33;;;;;;;;;;;;;;;12.17;100.00;100241.00;4194939;28;19948;-70
2023/10/22 06:55:37;;;;;;;;;;;;;;;12.18;100.00;100237.28;4195230;28;19963;-70
2023/10/22 06:57:39;;;;;;;;;;;;;;;12.17;100.00;100241.00;4192562;28;19985;-70
2023/10/22 06:59:40;;;;;;;;;;;;;;;12.16;100.00;100236.66;4190059;28;20396;-70
2023/10/22 07:01:43;;;;;;;;;;;;;;;12.16;100.00;100227.66;4191646;28;20022;-70
2023/10/22 07:03:49;;;;;;;;;;;;;;;12.18;100.00;100233.75;4193208;28;19928;-69
2023/10/22 07:05:51;;;;;;;;;;;;;;;12.18;100.00;100225.63;4193782;28;20627;-69
2023/10/22 07:07:55;;;;;;;;;;;;;;;12.17;100.00;100232.88;4193625;28;20011;-69
2023/10/22 07:09:57;;;;;;;;;;;;;;;12.16;100.00;100233.94;4193914;28;20028;-69
2023/10/22 07:12:03;;;;;;;;;;;;;;;12.15;100.00;100226.84;4195327;28;20031;-69
2023/10/22 07:14:06;;;;;;;;;;;;;;;12.16;100.00;100235.78;4194363;28;20024;-68
2023/10/22 07:16:08;;;;;;;;;;;;;;;12.17;100.00;100241.00;4193623;28;20367;-69
2023/10/22 07:18:11;;;;;;;;;;;;;;;12.16;100.00;100238.50;4192931;28;19979;-70
2023/10/22 07:20:16;;;;;;;;;;;;;;;12.18;100.00;100247.28;4193779;28;20457;-70
2023/10/22 07:22:18;;;;;;;;;;;;;;;12.19;100.00;100246.22;4169439;28;19932;-69
2023/10/22 07:24:21;;;;;;;;;;;;;;;12.19;100.00;100241.63;4192770;28;20182;-69
2023/10/22 07:26:26;;;;;;;;;;;;;;;12.20;100.00;100242.50;4192326;28;19933;-69
2023/10/22 07:28:28;;;;;;;;;;;;;;;12.21;100.00;100244.13;4188459;28;20022;-69
2023/10/22 07:30:30;;;;;;;;;;;;;;;12.21;100.00;100246.84;4194583;28;20391;-70
2023/10/22 07:32:32;;;;;;;;;;;;;;;12.22;100.00;100246.66;4193941;28;20048;-70
2023/10/22 07:34:36;;;;;;;;;;;;;;;12.22;100.00;100245.81;4194697;28;20031;-70
2023/10/22 07:36:40;;;;;;;;;;;;;;;12.24;100.00;100251.88;4211559;28;19995;-69
2023/10/22 07:38:43;;;;;;;;;;;;;;;12.25;100.00;100248.13;4195926;28;20020;-69
2023/10/22 07:40:47;;;;;;;;;;;;;;;12.28;100.00;100250.44;4193867;28;20015;-69
2023/10/22 07:42:48;;;;;;;;;;;;;;;12.29;100.00;100252.13;4194520;28;20020;-68
2023/10/22 07:44:52;;;;;;;;;;;;;;;12.32;100.00;100261.69;4195343;28;20019;-69
2023/10/22 07:46:55;;;;;;;;;;;;;;;12.32;100.00;100262.56;4194133;28;20379;-69
2023/10/22 07:48:57;;;;;;;;;;;;;;;12.35;100.00;100250.47;4187814;28;20488;-68
2023/10/22 07:51:07;;;;;;;;;;;;;;;12.36;99.72;100254.84;4194336;28;20028;-68
2023/10/22 07:53:09;;;;;;;;;;;;;;;12.37;99.15;100245.72;4193239;28;20497;-69
2023/10/22 07:55:11;;;;;;;;;;;;;;;12.39;97.86;100246.34;4195008;28;20394;-70
2023/10/22 07:57:13;;;;;;;;;;;;;;;12.41;97.04;100242.41;4194040;28;20363;-69
2023/10/22 07:59:15;;;;;;;;;;;;;;;12.44;96.54;100247.41;4194291;28;20027;-69
2023/10/22 08:01:19;;;;;;;;;;;;;;;12.47;95.74;100243.44;4193198;28;20030;-71
2023/10/22 08:03:21;;;;;;;;;;;;;;;12.49;95.06;100244.09;4177543;28;19998;-70
2023/10/22 08:05:24;;;;;;;;;;;;;;;12.53;94.57;100242.63;4184443;28;19928;-69
2023/10/22 08:07:26;;;;;;;;;;;;;;;12.56;93.80;100246.84;4190385;28;20836;-70
2023/10/22 08:09:29;;;;;;;;;;;;;;;12.60;93.25;100253.50;4192101;28;19924;-70
2023/10/22 08:11:34;;;;;;;;;;;;;;;12.61;92.56;100236.22;4190970;28;19956;-70
2023/10/22 08:13:38;;;;;;;;;;;;;;;12.66;92.07;100244.56;4193920;28;19939;-70
2023/10/22 08:15:40;;;;;;;;;;;;;;;12.70;91.85;100255.84;4191095;28;20019;-70
2023/10/22 08:17:42;;;;;;;;;;;;;;;12.73;91.39;100253.56;4189725;28;20028;-70
2023/10/22 08:19:44;;;;;;;;;;;;;;;12.78;91.03;100255.66;4190250;28;20032;-69
2023/10/22 08:21:46;;;;;;;;;;;;;;;12.83;90.51;100253.16;4193131;28;20462;-70
2023/10/22 08:23:48;;;;;;;;;;;;;;;12.88;90.20;100260.69;4194628;28;19982;-68
2023/10/22 08:25:51;;;;;;;;;;;;;;;12.92;89.92;100259.25;4193405;28;20295;-69
2023/10/22 08:27:54;;;;;;;;;;;;;;;12.97;89.40;100263.00;4195010;28;19943;-70
2023/10/22 08:29:59;;;;;;;;;;;;;;;13.01;89.14;100263.44;4188012;28;20031;-67
2023/10/22 08:32:00;;;;;;;;;;;;;;;13.06;88.84;100265.53;4188807;28;19967;-67
2023/10/22 08:34:03;;;;;;;;;;;;;;;13.11;88.94;100261.16;4192869;28;20019;-67
2023/10/22 08:36:08;;;;;;;;;;;;;;;13.16;88.65;100264.13;4188900;28;20198;-69
2023/10/22 08:38:10;;;;;;;;;;;;;;;13.22;88.90;100265.16;4190933;28;20011;-70
2023/10/22 08:40:15;;;;;;;;;;;;;;;13.28;88.60;100266.22;4191871;28;20450;-69
2023/10/22 08:42:19;;;;;;;;;;;;;;;13.33;88.54;100264.56;4191441;28;20019;-69
2023/10/22 08:44:24;;;;;;;;;;;;;;;13.40;88.47;100271.88;4191314;28;19924;-68
2023/10/22 08:46:28;;;;;;;;;;;;;;;13.45;88.43;100266.69;4189894;28;19974;-69
2023/10/22 08:48:30;;;;;;;;;;;;;;;13.50;88.23;100266.88;4188782;28;19928;-68
2023/10/22 08:50:31;;;;;;;;;;;;;;;13.54;87.81;100270.84;4188890;28;20043;-69
2023/10/22 08:52:33;;;;;;;;;;;;;;;13.58;87.83;100272.09;4181938;28;20033;-68
2023/10/22 08:54:40;;;;;;;;;;;;;;;13.64;87.44;100265.84;4187877;28;20692;-70
2023/10/22 08:56:42;;;;;;;;;;;;;;;13.68;87.17;100260.81;4189329;28;20839;-69
2023/10/22 08:58:44;;;;;;;;;;;;;;;13.70;86.78;100256.03;4188495;28;20011;-69
2023/10/22 09:00:47;;;;;;;;;;;;;;;13.75;86.72;100260.84;4190079;28;20043;-70
2023/10/22 09:02:51;;;;;;;;;;;;;;;13.78;86.72;100263.13;4192072;28;20569;-70
2023/10/22 09:04:53;;;;;;;;;;;;;;;13.79;86.64;100268.34;4206538;28;20051;-69
2023/10/22 09:06:55;;;;;;;;;;;;;;;13.81;86.43;100260.00;4185710;28;20019;-69
2023/10/22 09:08:57;;;;;;;;;;;;;;;13.82;86.06;100262.50;4192884;28;19932;-69
2023/10/22 09:11:01;;;;;;;;;;;;;;;13.83;85.76;100260.63;4191051;28;20469;-69
2023/10/22 09:13:23;;;;;;;;;;;;;;;13.85;85.65;100255.81;4191462;28;20015;-69
2023/10/22 09:15:24;;;;;;;;;;;;;;;13.85;85.53;100256.63;4189785;28;20039;-69
2023/10/22 09:17:26;;;;;;;;;;;;;;;13.86;85.37;100258.31;4192519;28;20032;-69
2023/10/22 09:19:36;;;;;;;;;;;;;;;13.87;85.33;100264.56;4192104;28;20043;-69
2023/10/22 09:21:42;;;;;;;;;;;;;;;13.86;85.23;100252.88;4191614;28;20032;-69
2023/10/22 09:23:44;;;;;;;;;;;;;;;13.86;85.21;100254.78;4194898;28;20022;-69
2023/10/22 09:25:47;;;;;;;;;;;;;;;13.86;84.99;100255.59;4194566;28;20015;-68
2023/10/22 09:27:49;;;;;;;;;;;;;;;13.84;84.79;100259.56;4193499;28;20563;-68
2023/10/22 09:29:51;;;;;;;;;;;;;;;13.84;85.02;100263.13;4191554;28;19928;-68
2023/10/22 09:31:54;;;;;;;;;;;;;;;13.85;85.11;100269.38;4193471;28;20066;-68
2023/10/22 09:33:56;;;;;;;;;;;;;;;13.83;84.66;100268.75;4194528;28;20022;-69
2023/10/22 09:36:00;;;;;;;;;;;;;;;13.80;84.86;100270.00;4190070;28;19932;-69
2023/10/22 09:38:02;;;;;;;;;;;;;;;13.81;84.86;100262.72;4194446;28;20035;-68
2023/10/22 09:40:04;;;;;;;;;;;;;;;13.79;84.78;100259.34;4193314;28;20355;-68
2023/10/22 09:42:06;;;;;;;;;;;;;;;13.77;84.65;100261.47;4192309;28;19958;-68
2023/10/22 09:44:08;;;;;;;;;;;;;;;13.75;84.57;100264.38;4195682;28;20466;-68
2023/10/22 09:46:09;;;;;;;;;;;;;;;13.74;84.46;100265.41;4195159;28;20019;-69
2023/10/22 09:48:15;;;;;;;;;;;;;;;13.72;84.64;100259.38;4194237;28;20426;-68
2023/10/22 09:50:18;;;;;;;;;;;;;;;13.70;84.56;100265.00;4193141;28;20574;-68
2023/10/22 09:52:22;;;;;;;;;;;;;;;13.70;84.62;100261.47;4193748;28;20022;-68
2023/10/22 09:54:25;;;;;;;;;;;;;;;13.70;84.64;100264.19;4194133;28;20022;-68
2023/10/22 09:56:27;;;;;;;;;;;;;;;13.68;84.67;100267.09;4195150;28;20052;-69
2023/10/22 09:58:28;;;;;;;;;;;;;;;13.67;84.51;100267.31;4194594;28;20074;-69
2023/10/22 10:00:30;;;;;;;;;;;;;;;13.67;84.81;100268.13;4194101;28;20454;-68
2023/10/22 10:02:32;;;;;;;;;;;;;;;13.66;84.83;100268.34;4194238;28;20011;-68
2023/10/22 10:04:35;;;;;;;;;;;;;;;13.67;84.91;100270.84;4197285;28;20015;-69
2023/10/22 10:06:37;;;;;;;;;;;;;;;13.66;84.94;100271.06;4197663;28;19967;-69
2023/10/22 10:08:42;;;;;;;;;;;;;;;13.64;85.02;100271.28;4196415;28;20043;-69
2023/10/22 10:10:45;;;;;;;;;;;;;;;13.64;84.99;100278.59;4197093;28;19932;-69
2023/10/22 10:12:48;;;;;;;;;;;;;;;13.62;84.77;100273.38;4213564;28;19985;-70
2023/10/22 10:14:50;;;;;;;;;;;;;;;13.62;84.93;100273.38;4212771;28;20636;-69
2023/10/22 10:17:00;;;;;;;;;;;;;;;13.61;85.25;100270.84;4197321;28;20024;-69
2023/10/22 10:19:03;;;;;;;;;;;;;;;13.60;85.08;100271.88;4197374;28;20367;-69
2023/10/22 10:21:20;;;;;;;;;;;;;;;13.59;85.09;100272.94;4195267;28;19992;-69
2023/10/22 10:23:23;;;;;;;;;;;;;;;13.59;84.90;100262.06;4195631;28;20036;-69
2023/10/22 10:25:30;;;;;;;;;;;;;;;13.56;85.13;100260.63;4196430;28;19952;-69
2023/10/22 10:27:33;;;;;;;;;;;;;;;13.61;85.23;100266.25;4197345;28;19985;-70